x

Mt Desert Rock, Me (mdrm1) Weather Station

5:00am - Sat 13th Feb 2016 All times are EST. -5 hours from GMT.

  • Wind
    24mph, 26mph gusts
  • Air Temp 24°f
  • Sea Pressure 1007.9mb
  • Mt Desert Rock, Me
  • Mt Desert Rock, Me

More Historic Weather Station data

Upgrade to MSW Pro to gain access to the past 30 days of data for over 8000 Wavebouys and Weather Stations around the globe.

Join Pro

Comparision Forecast

View Surf forecast
   
Sat 02/13 5:00am 24 26 mph 1007.9mb 24f
4:00am 21 24 mph 1008.9mb 24f
3:00am 11 13 mph 1010.1mb 23f
2:00am 10 14 mph 1011.3mb 24f
1:00am 15 18 mph 1012.5mb 24f
12:00am 7 9 mph 1013.5mb 23f
Fri 02/12 11:00pm 3 5 mph 1013.9mb 22f
10:00pm 6 7 mph 1014.5mb 22f
9:00pm 6 8 mph 1015.6mb 22f
8:00pm 8 13 mph 1016.7mb 22f
7:00pm 7 9 mph 1017.1mb 21f
6:00pm 10 13 mph 1017.6mb 19f
5:00pm 13 15 mph 1017.5mb 18f
4:00pm 13 17 mph 1017.4mb 17f
3:00pm 15 18 mph 1017mb 16f
2:00pm 14 20 mph 1017.1mb 15f
1:00pm 16 18 mph 1017.8mb 13f
12:00pm 16 20 mph 1018.2mb 13f
11:00am 16 23 mph 1018.9mb 11f
10:00am 22 26 mph 1018.6mb 10f
9:00am 20 24 mph 1018.4mb 9f
8:00am 24 28 mph 1017.8mb 10f
7:00am 28 31 mph 1017.1mb 9f
6:00am 31 36 mph 1016mb 8f
5:00am 31 37 mph 1015.3mb 8f
4:00am 36 40 mph 1013.9mb 9f
3:00am 33 38 mph 1013.1mb 10f
2:00am 30 33 mph 1012mb 11f
1:00am 30 36 mph 1010.7mb 13f
12:00am 30 32 mph 1009.8mb 17f
Thu 02/11 11:00pm 34 37 mph 1008.5mb 18f
10:00pm 33 39 mph 1007mb 21f
9:00pm 34 40 mph 1005.7mb 22f
8:00pm 30 34 mph 1004.8mb 25f
7:00pm 24 29 mph 1004.1mb 27f
6:00pm 16 20 mph 1003.7mb 28f
5:00pm 13 15 mph 1003.3mb 29f
4:00pm 10 15 mph 1003.1mb 28f
3:00pm 10 13 mph 1003.1mb 28f
2:00pm 14 16 mph 1002.1mb 27f
1:00pm 11 13 mph 1002.2mb 27f
12:00pm 14 16 mph 1002.5mb 27f
11:00am 14 17 mph 1003.2mb 27f
10:00am 13 15 mph 1003mb 27f
9:00am 18 21 mph 1002.6mb 27f
8:00am 22 24 mph 1001.9mb 27f
7:00am 26 30 mph 1001mb 29f
6:00am 22 23 mph 1000.7mb 31f
5:00am 14 15 mph 1000.4mb 33f
4:00am 13 15 mph 1000.1mb 34f
3:00am 11 16 mph 999.9mb 35f
2:00am 13 15 mph 1000.2mb 35f
1:00am 16 17 mph 1000mb 35f
12:00am 20 23 mph 1000.2mb 34f
Wed 02/10 11:00pm 18 20 mph 1000.5mb 34f
10:00pm 15 18 mph 1000.8mb 34f
9:00pm 7 8 mph 1001.2mb 33f
8:00pm 14 15 mph 1001.3mb 33f
7:00pm 9 10 mph 1001.6mb 33f
6:00pm 10 11 mph 1001.6mb 34f
5:00pm 8 10 mph 1001.1mb 34f
4:00pm 9 11 mph 1001mb 33f
3:00pm 7 8 mph 1000.7mb 32f
2:00pm 5
mph
1001mb 32f
1:00pm 1 2 mph 1001.4mb 31f
12:00pm 8 9 mph 1002.2mb 31f
11:00am 8 10 mph 1002.9mb 31f
10:00am 10 13 mph 1003.4mb 29f
9:00am 6 7 mph 1003.6mb 28f
8:00am 7 8 mph 1003.3mb 28f
7:00am 7 8 mph 1003.2mb 26f
6:00am 10 13 mph 1002.5mb 26f
5:00am 10 14 mph 1001.9mb 26f
4:00am 7 10 mph 1001.8mb 26f
3:00am 13 15 mph 1002.1mb 26f
2:00am 11 15 mph 1001.9mb 26f
1:00am 11 14 mph 1001.4mb 25f
12:00am 13 15 mph 1001.6mb 26f
Tue 02/09 11:00pm 10 16 mph 1001.3mb 26f
10:00pm 13 15 mph 1000.9mb 26f
9:00pm 14 16 mph 1000.9mb 27f
8:00pm 11 14 mph 1001.3mb 27f
7:00pm 14
mph
1001.6mb 27f
6:00pm 15 17 mph 1001.8mb 28f
5:00pm 14 16 mph 1001.3mb 28f
4:00pm 16 20 mph 1001mb 27f
3:00pm 16 20 mph 1001.1mb 26f
2:00pm 14 16 mph 1001.7mb 26f
1:00pm 10 13 mph 1003.5mb 26f
12:00pm 11 14 mph 1003.9mb 25f